sensor_id;sensor_type;location;lat;lon;timestamp;P1;durP1;ratioP1;P2;durP2;ratioP2
73296;SDS011;61524;50.938;11.396;2023-08-21T00:00:42;21.70;;;12.18;;
73296;SDS011;61524;50.938;11.396;2023-08-21T00:03:07;20.92;;;13.07;;
73296;SDS011;61524;50.938;11.396;2023-08-21T00:05:32;16.97;;;12.03;;
73296;SDS011;61524;50.938;11.396;2023-08-21T00:07:58;18.80;;;12.37;;
73296;SDS011;61524;50.938;11.396;2023-08-21T00:10:23;17.73;;;11.67;;
73296;SDS011;61524;50.938;11.396;2023-08-21T00:12:48;19.50;;;12.20;;
73296;SDS011;61524;50.938;11.396;2023-08-21T00:15:14;17.67;;;11.35;;
73296;SDS011;61524;50.938;11.396;2023-08-21T00:17:39;16.33;;;11.47;;
73296;SDS011;61524;50.938;11.396;2023-08-21T00:20:05;14.90;;;11.13;;
73296;SDS011;61524;50.938;11.396;2023-08-21T00:22:30;17.25;;;11.60;;
73296;SDS011;61524;50.938;11.396;2023-08-21T00:24:55;17.20;;;11.93;;
73296;SDS011;61524;50.938;11.396;2023-08-21T00:27:20;19.67;;;11.67;;
73296;SDS011;61524;50.938;11.396;2023-08-21T00:29:46;22.13;;;13.10;;
73296;SDS011;61524;50.938;11.396;2023-08-21T00:32:11;23.97;;;12.73;;
73296;SDS011;61524;50.938;11.396;2023-08-21T00:34:37;24.25;;;13.65;;
73296;SDS011;61524;50.938;11.396;2023-08-21T00:37:02;22.50;;;13.48;;
73296;SDS011;61524;50.938;11.396;2023-08-21T00:39:28;17.90;;;12.40;;
73296;SDS011;61524;50.938;11.396;2023-08-21T00:41:53;20.50;;;12.90;;
73296;SDS011;61524;50.938;11.396;2023-08-21T00:44:18;19.48;;;13.48;;
73296;SDS011;61524;50.938;11.396;2023-08-21T00:46:44;21.08;;;13.48;;
73296;SDS011;61524;50.938;11.396;2023-08-21T00:49:09;20.20;;;14.60;;
73296;SDS011;61524;50.938;11.396;2023-08-21T00:51:35;23.30;;;13.52;;
73296;SDS011;61524;50.938;11.396;2023-08-21T00:54:00;18.87;;;13.03;;
73296;SDS011;61524;50.938;11.396;2023-08-21T00:56:26;21.80;;;13.82;;
73296;SDS011;61524;50.938;11.396;2023-08-21T00:58:51;22.03;;;15.00;;
73296;SDS011;61524;50.938;11.396;2023-08-21T01:01:16;22.35;;;15.13;;
73296;SDS011;61524;50.938;11.396;2023-08-21T01:03:42;20.75;;;13.35;;
73296;SDS011;61524;50.938;11.396;2023-08-21T01:06:08;21.92;;;13.00;;
73296;SDS011;61524;50.938;11.396;2023-08-21T01:08:46;26.40;;;13.60;;
73296;SDS011;61524;50.938;11.396;2023-08-21T01:11:25;20.77;;;11.82;;
73296;SDS011;61524;50.938;11.396;2023-08-21T01:16:17;17.17;;;11.80;;
73296;SDS011;61524;50.938;11.396;2023-08-21T01:18:43;17.67;;;11.48;;
73296;SDS011;61524;50.938;11.396;2023-08-21T01:21:10;18.08;;;12.05;;
73296;SDS011;61524;50.938;11.396;2023-08-21T01:23:36;16.05;;;11.35;;
73296;SDS011;61524;50.938;11.396;2023-08-21T01:26:01;17.55;;;11.82;;
73296;SDS011;61524;50.938;11.396;2023-08-21T01:28:27;16.80;;;12.32;;
73296;SDS011;61524;50.938;11.396;2023-08-21T01:31:00;18.75;;;11.50;;
73296;SDS011;61524;50.938;11.396;2023-08-21T01:33:28;18.23;;;12.63;;
73296;SDS011;61524;50.938;11.396;2023-08-21T01:35:54;18.00;;;13.30;;
73296;SDS011;61524;50.938;11.396;2023-08-21T01:38:21;17.17;;;11.55;;
73296;SDS011;61524;50.938;11.396;2023-08-21T01:40:46;18.50;;;12.93;;
73296;SDS011;61524;50.938;11.396;2023-08-21T01:43:12;19.88;;;12.57;;
73296;SDS011;61524;50.938;11.396;2023-08-21T01:45:37;16.27;;;10.83;;
73296;SDS011;61524;50.938;11.396;2023-08-21T01:48:02;14.07;;;10.05;;
73296;SDS011;61524;50.938;11.396;2023-08-21T01:50:27;17.42;;;12.40;;
73296;SDS011;61524;50.938;11.396;2023-08-21T01:52:53;18.03;;;13.73;;
73296;SDS011;61524;50.938;11.396;2023-08-21T01:55:18;22.53;;;12.70;;
73296;SDS011;61524;50.938;11.396;2023-08-21T01:57:43;20.90;;;13.60;;
73296;SDS011;61524;50.938;11.396;2023-08-21T02:00:09;17.33;;;12.45;;
73296;SDS011;61524;50.938;11.396;2023-08-21T02:02:34;21.70;;;13.80;;
73296;SDS011;61524;50.938;11.396;2023-08-21T02:05:00;19.70;;;12.50;;
73296;SDS011;61524;50.938;11.396;2023-08-21T02:07:25;20.03;;;11.80;;
73296;SDS011;61524;50.938;11.396;2023-08-21T02:09:50;20.58;;;13.80;;
73296;SDS011;61524;50.938;11.396;2023-08-21T02:12:16;23.05;;;13.80;;
73296;SDS011;61524;50.938;11.396;2023-08-21T02:14:41;20.75;;;12.45;;
73296;SDS011;61524;50.938;11.396;2023-08-21T02:17:06;18.77;;;14.00;;
73296;SDS011;61524;50.938;11.396;2023-08-21T02:19:31;24.17;;;14.23;;
73296;SDS011;61524;50.938;11.396;2023-08-21T02:21:57;22.90;;;12.97;;
73296;SDS011;61524;50.938;11.396;2023-08-21T02:24:22;23.27;;;13.77;;
73296;SDS011;61524;50.938;11.396;2023-08-21T02:26:47;23.87;;;14.87;;
73296;SDS011;61524;50.938;11.396;2023-08-21T02:29:12;22.30;;;14.87;;
73296;SDS011;61524;50.938;11.396;2023-08-21T02:31:38;22.47;;;14.43;;
73296;SDS011;61524;50.938;11.396;2023-08-21T02:34:03;21.80;;;14.03;;
73296;SDS011;61524;50.938;11.396;2023-08-21T02:36:28;21.67;;;14.50;;
73296;SDS011;61524;50.938;11.396;2023-08-21T02:38:55;21.40;;;14.03;;
73296;SDS011;61524;50.938;11.396;2023-08-21T02:41:20;23.10;;;14.13;;
73296;SDS011;61524;50.938;11.396;2023-08-21T02:43:45;21.77;;;15.17;;
73296;SDS011;61524;50.938;11.396;2023-08-21T02:46:10;26.00;;;15.87;;
73296;SDS011;61524;50.938;11.396;2023-08-21T02:48:36;24.50;;;17.10;;
73296;SDS011;61524;50.938;11.396;2023-08-21T02:51:01;22.07;;;14.87;;
73296;SDS011;61524;50.938;11.396;2023-08-21T02:53:27;21.58;;;15.18;;
73296;SDS011;61524;50.938;11.396;2023-08-21T02:55:53;24.10;;;16.38;;
73296;SDS011;61524;50.938;11.396;2023-08-21T02:58:18;25.03;;;16.13;;
73296;SDS011;61524;50.938;11.396;2023-08-21T03:00:43;21.50;;;15.27;;
73296;SDS011;61524;50.938;11.396;2023-08-21T03:03:08;24.60;;;16.10;;
73296;SDS011;61524;50.938;11.396;2023-08-21T03:05:34;27.47;;;17.27;;
73296;SDS011;61524;50.938;11.396;2023-08-21T03:07:59;23.03;;;14.80;;
73296;SDS011;61524;50.938;11.396;2023-08-21T03:10:24;20.53;;;14.70;;
73296;SDS011;61524;50.938;11.396;2023-08-21T03:12:49;23.87;;;14.87;;
73296;SDS011;61524;50.938;11.396;2023-08-21T03:15:15;23.80;;;14.73;;
73296;SDS011;61524;50.938;11.396;2023-08-21T03:17:40;26.55;;;14.60;;
73296;SDS011;61524;50.938;11.396;2023-08-21T03:20:06;22.83;;;15.25;;
73296;SDS011;61524;50.938;11.396;2023-08-21T03:22:31;23.27;;;14.00;;
73296;SDS011;61524;50.938;11.396;2023-08-21T03:24:57;22.05;;;13.63;;
73296;SDS011;61524;50.938;11.396;2023-08-21T03:27:22;17.88;;;12.35;;
73296;SDS011;61524;50.938;11.396;2023-08-21T03:29:48;18.27;;;12.40;;
73296;SDS011;61524;50.938;11.396;2023-08-21T03:32:17;23.75;;;14.75;;
73296;SDS011;61524;50.938;11.396;2023-08-21T03:34:43;25.35;;;14.55;;
73296;SDS011;61524;50.938;11.396;2023-08-21T03:37:08;24.45;;;14.70;;
73296;SDS011;61524;50.938;11.396;2023-08-21T03:39:34;24.83;;;15.98;;
73296;SDS011;61524;50.938;11.396;2023-08-21T03:41:59;25.70;;;16.40;;
73296;SDS011;61524;50.938;11.396;2023-08-21T03:44:24;26.00;;;15.93;;
73296;SDS011;61524;50.938;11.396;2023-08-21T03:46:49;26.03;;;16.43;;
73296;SDS011;61524;50.938;11.396;2023-08-21T03:49:15;23.33;;;14.07;;
73296;SDS011;61524;50.938;11.396;2023-08-21T03:51:40;23.42;;;15.38;;
73296;SDS011;61524;50.938;11.396;2023-08-21T03:54:05;23.33;;;14.17;;
73296;SDS011;61524;50.938;11.396;2023-08-21T03:56:30;20.90;;;14.57;;
73296;SDS011;61524;50.938;11.396;2023-08-21T03:58:56;22.85;;;15.40;;
73296;SDS011;61524;50.938;11.396;2023-08-21T04:01:21;24.88;;;14.73;;
73296;SDS011;61524;50.938;11.396;2023-08-21T04:03:46;24.05;;;15.73;;
73296;SDS011;61524;50.938;11.396;2023-08-21T04:06:12;21.98;;;14.77;;
73296;SDS011;61524;50.938;11.396;2023-08-21T04:08:37;28.60;;;16.42;;
73296;SDS011;61524;50.938;11.396;2023-08-21T04:11:04;24.40;;;15.97;;
73296;SDS011;61524;50.938;11.396;2023-08-21T04:13:29;23.15;;;14.95;;
73296;SDS011;61524;50.938;11.396;2023-08-21T04:15:54;21.52;;;15.10;;
73296;SDS011;61524;50.938;11.396;2023-08-21T04:18:21;23.48;;;15.40;;
73296;SDS011;61524;50.938;11.396;2023-08-21T04:20:50;26.90;;;15.43;;
73296;SDS011;61524;50.938;11.396;2023-08-21T04:23:15;24.30;;;15.40;;
73296;SDS011;61524;50.938;11.396;2023-08-21T04:25:41;23.02;;;14.10;;
73296;SDS011;61524;50.938;11.396;2023-08-21T04:28:06;22.37;;;15.17;;
73296;SDS011;61524;50.938;11.396;2023-08-21T04:30:32;22.88;;;15.57;;
73296;SDS011;61524;50.938;11.396;2023-08-21T04:32:58;24.70;;;16.88;;
73296;SDS011;61524;50.938;11.396;2023-08-21T04:35:24;24.25;;;15.70;;
73296;SDS011;61524;50.938;11.396;2023-08-21T04:37:49;23.23;;;15.00;;
73296;SDS011;61524;50.938;11.396;2023-08-21T04:40:14;21.98;;;15.15;;
73296;SDS011;61524;50.938;11.396;2023-08-21T04:42:40;28.52;;;15.32;;
73296;SDS011;61524;50.938;11.396;2023-08-21T04:45:06;21.33;;;14.07;;
73296;SDS011;61524;50.938;11.396;2023-08-21T04:47:31;22.52;;;14.75;;
73296;SDS011;61524;50.938;11.396;2023-08-21T04:49:57;20.97;;;14.13;;
73296;SDS011;61524;50.938;11.396;2023-08-21T04:52:22;23.80;;;15.00;;
73296;SDS011;61524;50.938;11.396;2023-08-21T04:54:48;21.50;;;14.23;;
73296;SDS011;61524;50.938;11.396;2023-08-21T04:57:13;23.27;;;15.68;;
73296;SDS011;61524;50.938;11.396;2023-08-21T04:59:39;23.80;;;15.73;;
73296;SDS011;61524;50.938;11.396;2023-08-21T05:02:04;27.58;;;16.15;;
73296;SDS011;61524;50.938;11.396;2023-08-21T05:04:29;26.03;;;16.03;;
73296;SDS011;61524;50.938;11.396;2023-08-21T05:06:55;25.40;;;15.85;;
73296;SDS011;61524;50.938;11.396;2023-08-21T05:09:20;22.63;;;15.30;;
73296;SDS011;61524;50.938;11.396;2023-08-21T05:11:45;21.70;;;15.37;;
73296;SDS011;61524;50.938;11.396;2023-08-21T05:14:10;22.85;;;14.98;;
73296;SDS011;61524;50.938;11.396;2023-08-21T05:16:36;23.20;;;15.17;;
73296;SDS011;61524;50.938;11.396;2023-08-21T05:19:01;23.67;;;15.83;;
73296;SDS011;61524;50.938;11.396;2023-08-21T05:21:27;22.63;;;15.07;;
73296;SDS011;61524;50.938;11.396;2023-08-21T05:23:52;26.58;;;15.73;;
73296;SDS011;61524;50.938;11.396;2023-08-21T05:26:18;20.23;;;14.65;;
73296;SDS011;61524;50.938;11.396;2023-08-21T05:28:44;19.63;;;13.52;;
73296;SDS011;61524;50.938;11.396;2023-08-21T05:31:09;20.33;;;15.80;;
73296;SDS011;61524;50.938;11.396;2023-08-21T05:33:34;16.63;;;12.30;;
73296;SDS011;61524;50.938;11.396;2023-08-21T05:35:59;18.27;;;13.27;;
73296;SDS011;61524;50.938;11.396;2023-08-21T05:38:25;21.52;;;13.95;;
73296;SDS011;61524;50.938;11.396;2023-08-21T05:40:50;19.83;;;15.43;;
73296;SDS011;61524;50.938;11.396;2023-08-21T05:43:18;19.83;;;13.40;;
73296;SDS011;61524;50.938;11.396;2023-08-21T05:45:43;18.33;;;13.52;;
73296;SDS011;61524;50.938;11.396;2023-08-21T05:48:08;18.97;;;13.50;;
73296;SDS011;61524;50.938;11.396;2023-08-21T05:50:34;20.87;;;13.43;;
73296;SDS011;61524;50.938;11.396;2023-08-21T05:53:02;23.60;;;13.20;;
73296;SDS011;61524;50.938;11.396;2023-08-21T05:55:27;18.27;;;13.20;;
73296;SDS011;61524;50.938;11.396;2023-08-21T05:57:53;18.20;;;13.40;;
73296;SDS011;61524;50.938;11.396;2023-08-21T06:00:18;20.97;;;13.50;;
73296;SDS011;61524;50.938;11.396;2023-08-21T06:02:43;21.38;;;12.68;;
73296;SDS011;61524;50.938;11.396;2023-08-21T06:05:08;17.10;;;12.83;;
73296;SDS011;61524;50.938;11.396;2023-08-21T06:07:34;17.05;;;11.73;;
73296;SDS011;61524;50.938;11.396;2023-08-21T06:09:59;17.70;;;12.97;;
73296;SDS011;61524;50.938;11.396;2023-08-21T06:12:24;19.90;;;13.18;;
73296;SDS011;61524;50.938;11.396;2023-08-21T06:14:50;18.17;;;12.83;;
73296;SDS011;61524;50.938;11.396;2023-08-21T06:17:15;16.38;;;11.88;;
73296;SDS011;61524;50.938;11.396;2023-08-21T06:19:40;16.30;;;12.17;;
73296;SDS011;61524;50.938;11.396;2023-08-21T06:22:06;15.00;;;11.33;;
73296;SDS011;61524;50.938;11.396;2023-08-21T06:24:32;16.15;;;12.30;;
73296;SDS011;61524;50.938;11.396;2023-08-21T06:26:57;16.08;;;11.75;;
73296;SDS011;61524;50.938;11.396;2023-08-21T06:29:23;17.25;;;12.65;;
73296;SDS011;61524;50.938;11.396;2023-08-21T06:31:48;17.23;;;11.57;;
73296;SDS011;61524;50.938;11.396;2023-08-21T06:34:14;19.07;;;13.07;;
73296;SDS011;61524;50.938;11.396;2023-08-21T06:36:39;22.63;;;14.37;;
73296;SDS011;61524;50.938;11.396;2023-08-21T06:39:04;20.70;;;14.13;;
73296;SDS011;61524;50.938;11.396;2023-08-21T06:41:30;22.88;;;14.48;;
73296;SDS011;61524;50.938;11.396;2023-08-21T06:43:56;24.67;;;14.63;;
73296;SDS011;61524;50.938;11.396;2023-08-21T06:46:22;19.42;;;12.80;;
73296;SDS011;61524;50.938;11.396;2023-08-21T06:48:47;18.53;;;12.67;;
73296;SDS011;61524;50.938;11.396;2023-08-21T06:51:13;19.90;;;13.50;;
73296;SDS011;61524;50.938;11.396;2023-08-21T06:53:38;22.47;;;13.47;;
73296;SDS011;61524;50.938;11.396;2023-08-21T06:56:03;18.17;;;13.43;;
73296;SDS011;61524;50.938;11.396;2023-08-21T06:58:28;17.58;;;12.77;;
73296;SDS011;61524;50.938;11.396;2023-08-21T07:00:54;19.20;;;13.25;;
73296;SDS011;61524;50.938;11.396;2023-08-21T07:03:20;18.73;;;13.07;;
73296;SDS011;61524;50.938;11.396;2023-08-21T07:08:39;20.15;;;13.55;;
73296;SDS011;61524;50.938;11.396;2023-08-21T07:13:30;18.27;;;12.83;;
73296;SDS011;61524;50.938;11.396;2023-08-21T07:15:56;19.48;;;12.73;;
73296;SDS011;61524;50.938;11.396;2023-08-21T07:18:25;19.43;;;12.67;;
73296;SDS011;61524;50.938;11.396;2023-08-21T07:20:58;17.40;;;12.57;;
73296;SDS011;61524;50.938;11.396;2023-08-21T07:23:23;14.75;;;11.38;;
73296;SDS011;61524;50.938;11.396;2023-08-21T07:25:49;19.73;;;12.20;;
73296;SDS011;61524;50.938;11.396;2023-08-21T07:28:14;15.73;;;12.60;;
73296;SDS011;61524;50.938;11.396;2023-08-21T07:30:39;16.37;;;11.70;;
73296;SDS011;61524;50.938;11.396;2023-08-21T07:33:05;15.93;;;11.70;;
73296;SDS011;61524;50.938;11.396;2023-08-21T07:35:30;19.52;;;12.00;;
73296;SDS011;61524;50.938;11.396;2023-08-21T07:37:56;16.00;;;10.75;;
73296;SDS011;61524;50.938;11.396;2023-08-21T07:40:21;16.00;;;10.40;;
73296;SDS011;61524;50.938;11.396;2023-08-21T07:42:46;11.23;;;8.00;;
73296;SDS011;61524;50.938;11.396;2023-08-21T07:45:12;11.30;;;8.07;;
73296;SDS011;61524;50.938;11.396;2023-08-21T07:47:37;12.18;;;7.93;;
73296;SDS011;61524;50.938;11.396;2023-08-21T07:50:02;11.63;;;7.22;;
73296;SDS011;61524;50.938;11.396;2023-08-21T07:52:28;11.82;;;7.53;;
73296;SDS011;61524;50.938;11.396;2023-08-21T07:54:53;12.37;;;8.23;;
73296;SDS011;61524;50.938;11.396;2023-08-21T07:57:18;12.18;;;8.98;;
73296;SDS011;61524;50.938;11.396;2023-08-21T07:59:44;14.67;;;8.33;;
73296;SDS011;61524;50.938;11.396;2023-08-21T08:02:09;14.70;;;9.93;;
73296;SDS011;61524;50.938;11.396;2023-08-21T08:04:36;16.50;;;11.60;;
73296;SDS011;61524;50.938;11.396;2023-08-21T08:07:02;15.40;;;10.30;;
73296;SDS011;61524;50.938;11.396;2023-08-21T08:09:27;14.83;;;10.73;;
73296;SDS011;61524;50.938;11.396;2023-08-21T08:11:52;15.70;;;10.57;;
73296;SDS011;61524;50.938;11.396;2023-08-21T08:14:17;13.70;;;10.00;;
73296;SDS011;61524;50.938;11.396;2023-08-21T08:16:43;14.90;;;9.48;;
73296;SDS011;61524;50.938;11.396;2023-08-21T08:19:08;10.73;;;7.43;;
73296;SDS011;61524;50.938;11.396;2023-08-21T08:21:33;11.32;;;8.10;;
73296;SDS011;61524;50.938;11.396;2023-08-21T08:23:59;11.20;;;7.73;;
73296;SDS011;61524;50.938;11.396;2023-08-21T08:26:24;11.40;;;7.57;;
73296;SDS011;61524;50.938;11.396;2023-08-21T08:28:49;9.70;;;7.20;;
73296;SDS011;61524;50.938;11.396;2023-08-21T08:31:18;10.73;;;7.15;;
73296;SDS011;61524;50.938;11.396;2023-08-21T08:33:43;9.00;;;5.90;;
73296;SDS011;61524;50.938;11.396;2023-08-21T08:36:09;7.78;;;5.32;;
73296;SDS011;61524;50.938;11.396;2023-08-21T08:38:34;9.00;;;5.33;;
73296;SDS011;61524;50.938;11.396;2023-08-21T08:41:00;8.60;;;5.40;;
73296;SDS011;61524;50.938;11.396;2023-08-21T08:43:26;9.35;;;5.65;;
73296;SDS011;61524;50.938;11.396;2023-08-21T08:45:52;9.68;;;5.22;;
73296;SDS011;61524;50.938;11.396;2023-08-21T08:48:20;9.82;;;5.40;;
73296;SDS011;61524;50.938;11.396;2023-08-21T08:50:45;9.80;;;5.15;;
73296;SDS011;61524;50.938;11.396;2023-08-21T08:53:12;8.18;;;5.35;;
73296;SDS011;61524;50.938;11.396;2023-08-21T08:55:38;9.65;;;5.43;;
73296;SDS011;61524;50.938;11.396;2023-08-21T08:58:03;8.77;;;5.28;;
73296;SDS011;61524;50.938;11.396;2023-08-21T09:00:30;8.45;;;4.75;;
73296;SDS011;61524;50.938;11.396;2023-08-21T09:02:55;9.88;;;5.05;;
73296;SDS011;61524;50.938;11.396;2023-08-21T09:05:21;8.43;;;5.32;;
73296;SDS011;61524;50.938;11.396;2023-08-21T09:07:46;7.65;;;5.18;;
73296;SDS011;61524;50.938;11.396;2023-08-21T09:10:26;8.15;;;4.82;;
73296;SDS011;61524;50.938;11.396;2023-08-21T09:12:52;8.18;;;4.78;;
73296;SDS011;61524;50.938;11.396;2023-08-21T09:15:17;10.30;;;5.30;;
73296;SDS011;61524;50.938;11.396;2023-08-21T09:17:43;7.67;;;4.77;;
73296;SDS011;61524;50.938;11.396;2023-08-21T09:20:09;8.77;;;4.82;;
73296;SDS011;61524;50.938;11.396;2023-08-21T09:22:35;7.05;;;4.20;;
73296;SDS011;61524;50.938;11.396;2023-08-21T09:27:25;8.23;;;5.00;;
73296;SDS011;61524;50.938;11.396;2023-08-21T09:29:51;10.13;;;5.23;;
73296;SDS011;61524;50.938;11.396;2023-08-21T09:32:16;7.43;;;4.70;;
73296;SDS011;61524;50.938;11.396;2023-08-21T09:34:41;7.90;;;4.60;;
73296;SDS011;61524;50.938;11.396;2023-08-21T09:37:07;10.30;;;4.87;;
73296;SDS011;61524;50.938;11.396;2023-08-21T09:39:36;6.03;;;4.10;;
73296;SDS011;61524;50.938;11.396;2023-08-21T09:42:05;11.35;;;4.68;;
73296;SDS011;61524;50.938;11.396;2023-08-21T09:44:35;9.07;;;4.75;;
73296;SDS011;61524;50.938;11.396;2023-08-21T09:47:00;7.63;;;4.15;;
73296;SDS011;61524;50.938;11.396;2023-08-21T09:49:25;8.63;;;4.60;;
73296;SDS011;61524;50.938;11.396;2023-08-21T09:51:51;7.32;;;4.43;;
73296;SDS011;61524;50.938;11.396;2023-08-21T09:54:18;7.93;;;4.72;;
73296;SDS011;61524;50.938;11.396;2023-08-21T09:56:43;7.33;;;4.63;;
73296;SDS011;61524;50.938;11.396;2023-08-21T09:59:08;7.22;;;4.82;;
73296;SDS011;61524;50.938;11.396;2023-08-21T10:01:34;9.27;;;4.75;;
73296;SDS011;61524;50.938;11.396;2023-08-21T10:04:00;6.85;;;4.15;;
73296;SDS011;61524;50.938;11.396;2023-08-21T10:06:27;8.52;;;4.90;;
73296;SDS011;61524;50.938;11.396;2023-08-21T10:08:53;8.48;;;5.30;;
73296;SDS011;61524;50.938;11.396;2023-08-21T10:11:20;6.47;;;4.15;;
73296;SDS011;61524;50.938;11.396;2023-08-21T10:13:45;9.77;;;4.72;;
73296;SDS011;61524;50.938;11.396;2023-08-21T10:16:11;7.40;;;4.68;;
73296;SDS011;61524;50.938;11.396;2023-08-21T10:18:37;8.43;;;4.63;;
73296;SDS011;61524;50.938;11.396;2023-08-21T10:23:39;7.82;;;4.78;;
73296;SDS011;61524;50.938;11.396;2023-08-21T10:26:06;8.30;;;4.60;;
73296;SDS011;61524;50.938;11.396;2023-08-21T10:31:29;8.25;;;5.22;;
73296;SDS011;61524;50.938;11.396;2023-08-21T10:33:55;8.15;;;5.63;;
73296;SDS011;61524;50.938;11.396;2023-08-21T10:39:12;13.15;;;5.13;;
73296;SDS011;61524;50.938;11.396;2023-08-21T10:41:37;7.45;;;5.35;;
73296;SDS011;61524;50.938;11.396;2023-08-21T10:44:03;7.23;;;5.13;;
73296;SDS011;61524;50.938;11.396;2023-08-21T10:46:30;11.07;;;5.53;;
73296;SDS011;61524;50.938;11.396;2023-08-21T10:49:14;10.65;;;5.75;;
73296;SDS011;61524;50.938;11.396;2023-08-21T10:51:39;10.83;;;5.40;;
73296;SDS011;61524;50.938;11.396;2023-08-21T10:54:14;9.55;;;5.80;;
73296;SDS011;61524;50.938;11.396;2023-08-21T10:56:39;7.68;;;4.80;;
73296;SDS011;61524;50.938;11.396;2023-08-21T10:59:04;7.67;;;5.00;;
73296;SDS011;61524;50.938;11.396;2023-08-21T11:01:42;7.03;;;5.00;;
73296;SDS011;61524;50.938;11.396;2023-08-21T11:04:09;7.05;;;5.13;;
73296;SDS011;61524;50.938;11.396;2023-08-21T11:06:34;8.25;;;4.72;;
73296;SDS011;61524;50.938;11.396;2023-08-21T11:11:26;6.80;;;4.87;;
73296;SDS011;61524;50.938;11.396;2023-08-21T11:13:52;7.40;;;4.53;;
73296;SDS011;61524;50.938;11.396;2023-08-21T11:18:43;7.47;;;5.18;;
73296;SDS011;61524;50.938;11.396;2023-08-21T11:23:34;6.80;;;4.50;;
73296;SDS011;61524;50.938;11.396;2023-08-21T11:26:00;7.72;;;4.95;;
73296;SDS011;61524;50.938;11.396;2023-08-21T11:28:25;7.50;;;4.60;;
73296;SDS011;61524;50.938;11.396;2023-08-21T11:30:50;7.13;;;4.60;;
73296;SDS011;61524;50.938;11.396;2023-08-21T11:33:16;7.45;;;4.40;;
73296;SDS011;61524;50.938;11.396;2023-08-21T11:35:41;7.90;;;4.70;;
73296;SDS011;61524;50.938;11.396;2023-08-21T11:38:13;10.40;;;5.07;;
73296;SDS011;61524;50.938;11.396;2023-08-21T11:40:38;7.05;;;4.53;;
73296;SDS011;61524;50.938;11.396;2023-08-21T11:43:03;9.57;;;4.90;;
73296;SDS011;61524;50.938;11.396;2023-08-21T11:45:30;8.13;;;4.75;;
73296;SDS011;61524;50.938;11.396;2023-08-21T11:47:55;5.90;;;4.45;;
73296;SDS011;61524;50.938;11.396;2023-08-21T11:50:21;6.43;;;4.18;;
73296;SDS011;61524;50.938;11.396;2023-08-21T11:52:46;7.30;;;3.97;;
73296;SDS011;61524;50.938;11.396;2023-08-21T11:55:11;7.30;;;4.57;;
73296;SDS011;61524;50.938;11.396;2023-08-21T11:57:49;7.97;;;4.63;;
73296;SDS011;61524;50.938;11.396;2023-08-21T12:00:15;7.80;;;4.10;;
73296;SDS011;61524;50.938;11.396;2023-08-21T12:02:44;5.93;;;4.07;;
73296;SDS011;61524;50.938;11.396;2023-08-21T12:05:18;6.43;;;4.05;;
73296;SDS011;61524;50.938;11.396;2023-08-21T12:07:44;6.80;;;4.10;;
73296;SDS011;61524;50.938;11.396;2023-08-21T12:10:10;6.25;;;4.38;;
73296;SDS011;61524;50.938;11.396;2023-08-21T12:12:35;7.90;;;4.70;;
73296;SDS011;61524;50.938;11.396;2023-08-21T12:15:00;6.17;;;4.60;;
73296;SDS011;61524;50.938;11.396;2023-08-21T12:17:25;6.70;;;4.50;;
73296;SDS011;61524;50.938;11.396;2023-08-21T12:19:51;7.17;;;4.10;;
73296;SDS011;61524;50.938;11.396;2023-08-21T12:22:16;7.95;;;4.65;;
73296;SDS011;61524;50.938;11.396;2023-08-21T12:24:41;7.40;;;4.20;;
73296;SDS011;61524;50.938;11.396;2023-08-21T12:27:07;7.97;;;4.90;;
73296;SDS011;61524;50.938;11.396;2023-08-21T12:29:32;8.35;;;4.45;;
73296;SDS011;61524;50.938;11.396;2023-08-21T12:31:57;7.88;;;4.88;;
73296;SDS011;61524;50.938;11.396;2023-08-21T12:34:23;7.25;;;4.85;;
73296;SDS011;61524;50.938;11.396;2023-08-21T12:36:49;6.90;;;4.82;;
73296;SDS011;61524;50.938;11.396;2023-08-21T12:39:15;9.05;;;4.57;;
73296;SDS011;61524;50.938;11.396;2023-08-21T12:41:41;7.22;;;4.28;;
73296;SDS011;61524;50.938;11.396;2023-08-21T12:44:07;8.88;;;4.50;;
73296;SDS011;61524;50.938;11.396;2023-08-21T12:46:34;7.10;;;4.20;;
73296;SDS011;61524;50.938;11.396;2023-08-21T12:48:59;6.38;;;4.20;;
73296;SDS011;61524;50.938;11.396;2023-08-21T12:51:26;6.43;;;3.67;;
73296;SDS011;61524;50.938;11.396;2023-08-21T12:53:51;6.85;;;4.40;;
73296;SDS011;61524;50.938;11.396;2023-08-21T12:56:16;6.60;;;4.10;;
73296;SDS011;61524;50.938;11.396;2023-08-21T12:58:42;6.43;;;3.97;;
73296;SDS011;61524;50.938;11.396;2023-08-21T13:01:07;7.63;;;4.47;;
73296;SDS011;61524;50.938;11.396;2023-08-21T13:03:33;7.82;;;4.03;;
73296;SDS011;61524;50.938;11.396;2023-08-21T13:05:58;10.75;;;3.92;;
73296;SDS011;61524;50.938;11.396;2023-08-21T13:08:23;6.23;;;4.10;;
73296;SDS011;61524;50.938;11.396;2023-08-21T13:10:49;7.72;;;4.80;;
73296;SDS011;61524;50.938;11.396;2023-08-21T13:13:14;7.03;;;4.40;;
73296;SDS011;61524;50.938;11.396;2023-08-21T13:15:39;5.83;;;3.90;;
73296;SDS011;61524;50.938;11.396;2023-08-21T13:18:05;5.97;;;4.20;;
73296;SDS011;61524;50.938;11.396;2023-08-21T13:20:30;7.13;;;4.03;;
73296;SDS011;61524;50.938;11.396;2023-08-21T13:22:55;6.65;;;4.05;;
73296;SDS011;61524;50.938;11.396;2023-08-21T13:25:22;6.63;;;3.60;;
73296;SDS011;61524;50.938;11.396;2023-08-21T13:27:48;7.55;;;3.72;;
73296;SDS011;61524;50.938;11.396;2023-08-21T13:30:13;8.02;;;4.20;;
73296;SDS011;61524;50.938;11.396;2023-08-21T13:32:38;6.63;;;3.88;;
73296;SDS011;61524;50.938;11.396;2023-08-21T13:35:04;6.23;;;3.70;;
73296;SDS011;61524;50.938;11.396;2023-08-21T13:37:33;7.32;;;3.47;;
73296;SDS011;61524;50.938;11.396;2023-08-21T13:39:58;8.40;;;3.88;;
73296;SDS011;61524;50.938;11.396;2023-08-21T13:44:50;7.55;;;3.80;;
73296;SDS011;61524;50.938;11.396;2023-08-21T13:47:15;6.07;;;3.25;;
73296;SDS011;61524;50.938;11.396;2023-08-21T13:49:41;8.00;;;3.93;;
73296;SDS011;61524;50.938;11.396;2023-08-21T13:52:06;6.93;;;3.53;;
73296;SDS011;61524;50.938;11.396;2023-08-21T13:54:31;7.03;;;3.43;;
73296;SDS011;61524;50.938;11.396;2023-08-21T13:56:57;5.20;;;3.13;;
73296;SDS011;61524;50.938;11.396;2023-08-21T13:59:22;7.93;;;3.97;;
73296;SDS011;61524;50.938;11.396;2023-08-21T14:01:47;6.10;;;3.80;;
73296;SDS011;61524;50.938;11.396;2023-08-21T14:04:12;6.50;;;4.00;;
73296;SDS011;61524;50.938;11.396;2023-08-21T14:06:38;8.50;;;3.90;;
73296;SDS011;61524;50.938;11.396;2023-08-21T14:09:03;6.27;;;3.33;;
73296;SDS011;61524;50.938;11.396;2023-08-21T14:11:28;9.10;;;3.40;;
73296;SDS011;61524;50.938;11.396;2023-08-21T14:13:54;6.90;;;3.50;;
73296;SDS011;61524;50.938;11.396;2023-08-21T14:16:19;7.07;;;3.87;;
73296;SDS011;61524;50.938;11.396;2023-08-21T14:18:44;7.07;;;3.95;;
73296;SDS011;61524;50.938;11.396;2023-08-21T14:21:09;6.70;;;3.60;;
73296;SDS011;61524;50.938;11.396;2023-08-21T14:23:35;6.93;;;3.97;;
73296;SDS011;61524;50.938;11.396;2023-08-21T14:26:00;5.07;;;3.70;;
73296;SDS011;61524;50.938;11.396;2023-08-21T14:28:26;6.45;;;3.60;;
73296;SDS011;61524;50.938;11.396;2023-08-21T14:30:51;7.87;;;4.03;;
73296;SDS011;61524;50.938;11.396;2023-08-21T14:33:17;4.65;;;3.45;;
73296;SDS011;61524;50.938;11.396;2023-08-21T14:35:43;5.97;;;3.50;;
73296;SDS011;61524;50.938;11.396;2023-08-21T14:38:09;7.23;;;3.90;;